createdAt,value
2022-11-06T00:00:46.274Z,100.00
2022-11-06T00:03:12.629Z,100.00
2022-11-06T00:05:58.799Z,100.00
2022-11-06T00:08:29.576Z,100.00
2022-11-06T00:10:56.063Z,100.00
2022-11-06T00:13:22.633Z,100.00
2022-11-06T00:15:51.850Z,100.00
2022-11-06T00:18:18.399Z,100.00
2022-11-06T00:20:44.788Z,100.00
2022-11-06T00:23:11.367Z,100.00
2022-11-06T00:25:40.116Z,100.00
2022-11-06T00:28:06.586Z,100.00
2022-11-06T00:30:32.947Z,100.00
2022-11-06T00:32:59.301Z,100.00
2022-11-06T00:35:25.636Z,100.00
2022-11-06T00:37:51.967Z,100.00
2022-11-06T00:40:18.312Z,100.00
2022-11-06T00:42:46.940Z,100.00
2022-11-06T00:45:13.253Z,100.00
2022-11-06T00:47:39.716Z,100.00
2022-11-06T00:50:06.429Z,100.00
2022-11-06T00:52:32.765Z,100.00
2022-11-06T00:54:59.147Z,100.00
2022-11-06T00:57:25.611Z,100.00
2022-11-06T00:59:51.960Z,100.00
2022-11-06T01:02:23.328Z,100.00
2022-11-06T01:04:49.784Z,100.00
2022-11-06T01:07:16.090Z,100.00
2022-11-06T01:09:42.433Z,100.00
2022-11-06T01:12:13.694Z,100.00
2022-11-06T01:14:43.377Z,100.00
2022-11-06T01:17:13.602Z,100.00
2022-11-06T01:19:40.257Z,100.00
2022-11-06T01:22:06.550Z,100.00
2022-11-06T01:24:33.009Z,100.00
2022-11-06T01:29:48.359Z,100.00
2022-11-06T01:32:14.652Z,100.00
2022-11-06T01:34:43.481Z,100.00
2022-11-06T01:37:14.246Z,100.00
2022-11-06T01:39:41.352Z,100.00
2022-11-06T01:42:07.638Z,100.00
2022-11-06T01:44:56.898Z,100.00
2022-11-06T01:47:24.815Z,100.00
2022-11-06T01:49:53.241Z,100.00
2022-11-06T01:52:20.786Z,100.00
2022-11-06T01:54:49.286Z,100.00
2022-11-06T01:57:15.615Z,100.00
2022-11-06T01:59:43.805Z,100.00
2022-11-06T02:02:10.545Z,100.00
2022-11-06T02:04:48.321Z,100.00
2022-11-06T02:07:15.448Z,100.00
2022-11-06T02:09:41.743Z,100.00
2022-11-06T02:12:13.473Z,100.00
2022-11-06T02:15:01.159Z,100.00
2022-11-06T02:17:30.530Z,100.00
2022-11-06T02:20:15.647Z,100.00
2022-11-06T02:23:00.903Z,100.00
2022-11-06T02:25:33.438Z,100.00
2022-11-06T02:28:03.675Z,100.00
2022-11-06T02:30:34.668Z,100.00
2022-11-06T02:33:04.640Z,100.00
2022-11-06T02:35:43.172Z,100.00
2022-11-06T02:38:12.213Z,100.00
2022-11-06T02:41:05.140Z,100.00
2022-11-06T02:43:35.924Z,100.00
2022-11-06T02:46:08.257Z,100.00
2022-11-06T02:48:38.348Z,100.00
2022-11-06T02:51:05.639Z,100.00
2022-11-06T02:53:36.473Z,100.00
2022-11-06T02:56:09.455Z,100.00
2022-11-06T02:58:46.152Z,100.00
2022-11-06T03:01:24.215Z,100.00
2022-11-06T03:03:55.811Z,100.00
2022-11-06T03:06:27.169Z,100.00
2022-11-06T03:09:01.390Z,100.00
2022-11-06T03:11:32.631Z,100.00
2022-11-06T03:14:09.051Z,100.00
2022-11-06T03:16:41.513Z,100.00
2022-11-06T03:19:07.814Z,100.00
2022-11-06T03:21:53.131Z,100.00
2022-11-06T03:24:31.071Z,100.00
2022-11-06T03:26:59.356Z,100.00
2022-11-06T03:29:39.313Z,100.00
2022-11-06T03:32:11.126Z,100.00
2022-11-06T03:35:02.396Z,100.00
2022-11-06T03:37:34.286Z,100.00
2022-11-06T03:40:02.485Z,100.00
2022-11-06T03:42:30.372Z,100.00
2022-11-06T03:44:58.452Z,100.00
2022-11-06T03:47:28.283Z,100.00
2022-11-06T03:49:58.599Z,100.00
2022-11-06T03:52:28.786Z,100.00
2022-11-06T03:54:55.117Z,100.00
2022-11-06T03:57:24.865Z,100.00
2022-11-06T03:59:53.553Z,100.00
2022-11-06T04:02:22.587Z,100.00
2022-11-06T04:04:51.539Z,100.00
2022-11-06T04:07:22.399Z,100.00
2022-11-06T04:10:12.784Z,100.00
2022-11-06T04:12:58.209Z,100.00
2022-11-06T04:15:24.930Z,100.00
2022-11-06T04:17:51.356Z,100.00
2022-11-06T04:20:42.005Z,100.00
2022-11-06T04:23:12.527Z,100.00
2022-11-06T04:26:30.007Z,100.00
2022-11-06T04:28:56.272Z,100.00
2022-11-06T04:31:36.754Z,100.00
2022-11-06T04:34:08.789Z,100.00
2022-11-06T04:36:38.083Z,100.00
2022-11-06T04:39:10.270Z,100.00
2022-11-06T04:41:40.917Z,100.00
2022-11-06T04:44:14.396Z,100.00
2022-11-06T04:46:52.595Z,100.00
2022-11-06T04:49:20.232Z,100.00
2022-11-06T04:51:47.105Z,100.00
2022-11-06T04:54:14.351Z,100.00
2022-11-06T04:56:45.680Z,100.00
2022-11-06T04:59:13.993Z,100.00
2022-11-06T05:01:40.379Z,100.00
2022-11-06T05:04:06.767Z,100.00
2022-11-06T05:06:33.092Z,100.00
2022-11-06T05:08:59.572Z,100.00
2022-11-06T05:11:25.848Z,100.00
2022-11-06T05:13:52.220Z,100.00
2022-11-06T05:16:18.573Z,100.00
2022-11-06T05:18:44.890Z,100.00
2022-11-06T05:21:29.957Z,100.00
2022-11-06T05:23:56.336Z,100.00
2022-11-06T05:26:22.684Z,100.00
2022-11-06T05:28:49.406Z,100.00
2022-11-06T05:31:15.720Z,100.00
2022-11-06T05:33:44.494Z,100.00
2022-11-06T05:36:10.816Z,100.00
2022-11-06T05:38:37.127Z,100.00
2022-11-06T05:41:03.470Z,100.00
2022-11-06T05:43:29.851Z,100.00
2022-11-06T05:45:56.294Z,100.00
2022-11-06T05:48:22.624Z,100.00
2022-11-06T05:50:48.976Z,100.00
2022-11-06T05:53:15.747Z,100.00
2022-11-06T05:55:42.161Z,100.00
2022-11-06T05:58:08.476Z,100.00
2022-11-06T06:00:34.801Z,100.00
2022-11-06T06:03:01.728Z,100.00
2022-11-06T06:05:30.436Z,100.00
2022-11-06T06:07:56.769Z,100.00
2022-11-06T06:10:23.050Z,100.00
2022-11-06T06:12:54.324Z,100.00
2022-11-06T06:15:20.645Z,100.00
2022-11-06T06:17:46.938Z,100.00
2022-11-06T06:20:13.646Z,100.00
2022-11-06T06:22:42.639Z,100.00
2022-11-06T06:25:17.345Z,100.00
2022-11-06T06:27:48.677Z,100.00
2022-11-06T06:30:15.097Z,100.00
2022-11-06T06:32:43.528Z,100.00
2022-11-06T06:35:10.071Z,100.00
2022-11-06T06:37:36.522Z,100.00
2022-11-06T06:40:03.048Z,100.00
2022-11-06T06:42:31.353Z,100.00
2022-11-06T06:45:00.320Z,100.00
2022-11-06T06:47:28.965Z,100.00
2022-11-06T06:49:55.358Z,100.00
2022-11-06T06:52:21.671Z,100.00
2022-11-06T06:54:47.995Z,100.00
2022-11-06T06:57:14.303Z,100.00
2022-11-06T06:59:40.572Z,100.00
2022-11-06T07:02:06.873Z,100.00
2022-11-06T07:04:33.225Z,100.00
2022-11-06T07:07:01.694Z,100.00
2022-11-06T07:09:30.720Z,100.00
2022-11-06T07:11:57.357Z,100.00
2022-11-06T07:14:23.679Z,100.00
2022-11-06T07:16:53.718Z,100.00
2022-11-06T07:19:20.601Z,100.00
2022-11-06T07:21:46.941Z,100.00
2022-11-06T07:24:13.222Z,100.00
2022-11-06T07:26:39.619Z,100.00
2022-11-06T07:29:05.959Z,100.00
2022-11-06T07:31:32.246Z,100.00
2022-11-06T07:34:00.745Z,100.00
2022-11-06T07:36:27.100Z,100.00
2022-11-06T07:38:53.387Z,100.00
2022-11-06T07:41:19.896Z,100.00
2022-11-06T07:43:49.028Z,100.00
2022-11-06T07:46:15.317Z,100.00
2022-11-06T07:48:41.674Z,100.00
2022-11-06T07:51:08.868Z,100.00
2022-11-06T07:53:37.636Z,100.00
2022-11-06T07:56:04.328Z,100.00
2022-11-06T07:58:30.897Z,100.00
2022-11-06T08:00:59.859Z,100.00
2022-11-06T08:03:26.717Z,100.00
2022-11-06T08:05:52.996Z,100.00
2022-11-06T08:08:21.722Z,100.00
2022-11-06T08:10:48.105Z,100.00
2022-11-06T08:13:15.837Z,100.00
2022-11-06T08:15:42.492Z,100.00
2022-11-06T08:18:12.261Z,100.00
2022-11-06T08:20:42.259Z,100.00
2022-11-06T08:23:10.745Z,100.00
2022-11-06T08:25:37.586Z,100.00
2022-11-06T08:28:06.042Z,100.00
2022-11-06T08:30:32.390Z,100.00
2022-11-06T08:33:05.876Z,100.00
2022-11-06T08:35:33.729Z,100.00
2022-11-06T08:38:00.038Z,100.00
2022-11-06T08:40:30.552Z,100.00
2022-11-06T08:43:00.843Z,100.00
2022-11-06T08:45:27.628Z,100.00
2022-11-06T08:47:53.950Z,100.00
2022-11-06T08:50:20.232Z,100.00
2022-11-06T08:52:46.878Z,100.00
2022-11-06T08:55:13.186Z,100.00
2022-11-06T08:57:39.452Z,100.00
2022-11-06T09:00:08.459Z,100.00
2022-11-06T09:02:37.183Z,100.00
2022-11-06T09:05:03.541Z,100.00
2022-11-06T09:07:29.906Z,100.00
2022-11-06T09:09:56.226Z,100.00
2022-11-06T09:12:22.539Z,100.00
2022-11-06T09:14:48.869Z,100.00
2022-11-06T09:17:15.239Z,100.00
2022-11-06T09:19:41.529Z,100.00
2022-11-06T09:22:10.634Z,100.00
2022-11-06T09:25:01.385Z,100.00
2022-11-06T09:27:23.271Z,100.00
2022-11-06T09:29:49.659Z,100.00
2022-11-06T09:32:16.127Z,100.00
2022-11-06T09:34:44.950Z,100.00
2022-11-06T09:37:13.465Z,100.00
2022-11-06T09:39:39.771Z,100.00
2022-11-06T09:42:24.724Z,100.00
2022-11-06T09:45:02.336Z,97.81
2022-11-06T09:47:32.905Z,98.62
2022-11-06T09:49:59.358Z,100.00
2022-11-06T09:52:36.170Z,100.00
2022-11-06T09:55:05.031Z,99.11
2022-11-06T09:57:40.227Z,100.00
2022-11-06T10:00:07.506Z,100.00
2022-11-06T10:02:37.986Z,99.44
2022-11-06T10:05:23.155Z,95.75
2022-11-06T10:07:51.688Z,96.88
2022-11-06T10:10:22.270Z,97.07
2022-11-06T10:13:00.081Z,94.04
2022-11-06T10:15:28.832Z,90.77
2022-11-06T10:18:00.886Z,92.82
2022-11-06T10:20:50.578Z,93.88
2022-11-06T10:23:27.347Z,92.95
2022-11-06T10:26:02.206Z,92.55
2022-11-06T10:28:43.610Z,92.90
2022-11-06T10:31:28.731Z,89.89
2022-11-06T10:33:58.041Z,90.52
2022-11-06T10:36:37.569Z,89.43
2022-11-06T10:39:04.864Z,90.09
2022-11-06T10:41:38.238Z,91.69
2022-11-06T10:44:23.235Z,91.63
2022-11-06T10:46:59.049Z,90.95
2022-11-06T10:49:28.347Z,94.37
2022-11-06T10:52:19.283Z,90.20
2022-11-06T10:55:04.338Z,88.08
2022-11-06T10:57:33.532Z,89.38
2022-11-06T11:00:03.777Z,90.42
2022-11-06T11:02:37.552Z,88.22
2022-11-06T11:05:10.633Z,87.50
2022-11-06T11:07:37.046Z,88.02
2022-11-06T11:10:22.035Z,89.27
2022-11-06T11:12:48.721Z,90.87
2022-11-06T11:15:17.677Z,90.77
2022-11-06T11:18:04.017Z,88.34
2022-11-06T11:20:32.054Z,90.16
2022-11-06T11:23:16.896Z,90.47
2022-11-06T11:25:50.370Z,91.02
2022-11-06T11:28:22.896Z,89.31
2022-11-06T11:30:53.743Z,88.90
2022-11-06T11:33:22.332Z,90.39
2022-11-06T11:35:49.670Z,86.85
2022-11-06T11:38:19.584Z,88.30
2022-11-06T11:40:45.978Z,84.44
2022-11-06T11:43:24.431Z,85.15
2022-11-06T11:46:09.186Z,84.16
2022-11-06T11:48:44.569Z,86.39
2022-11-06T11:51:12.191Z,85.21
2022-11-06T11:53:38.669Z,84.17
2022-11-06T11:56:07.423Z,84.72
2022-11-06T11:58:37.805Z,83.12
2022-11-06T12:01:05.533Z,83.46
2022-11-06T12:03:34.185Z,83.75
2022-11-06T12:06:19.174Z,83.20
2022-11-06T12:08:53.697Z,80.81
2022-11-06T12:11:22.240Z,85.14
2022-11-06T12:14:09.804Z,82.22
2022-11-06T12:16:36.467Z,81.51
2022-11-06T12:19:03.251Z,81.75
2022-11-06T12:21:34.676Z,80.81
2022-11-06T12:24:09.395Z,80.60
2022-11-06T12:26:44.501Z,80.54
2022-11-06T12:29:12.904Z,81.57
2022-11-06T12:31:53.393Z,79.12
2022-11-06T12:34:25.634Z,79.94
2022-11-06T12:37:19.790Z,78.94
2022-11-06T12:39:51.999Z,81.19
2022-11-06T12:42:20.848Z,81.03
2022-11-06T12:44:47.770Z,82.26
2022-11-06T12:47:17.169Z,81.84
2022-11-06T12:49:49.651Z,80.49
2022-11-06T12:52:25.110Z,79.58
2022-11-06T12:55:03.785Z,79.57
2022-11-06T12:57:39.057Z,81.51
2022-11-06T13:00:08.567Z,79.56
2022-11-06T13:02:34.880Z,79.47
2022-11-06T13:05:19.773Z,79.71
2022-11-06T13:07:48.821Z,79.80
2022-11-06T13:10:15.201Z,79.69
2022-11-06T13:12:46.246Z,81.76
2022-11-06T13:15:24.612Z,80.86
2022-11-06T13:17:55.612Z,80.22
2022-11-06T13:20:31.019Z,81.35
2022-11-06T13:23:16.411Z,80.65
2022-11-06T13:27:56.927Z,80.51
2022-11-06T13:32:37.208Z,78.89
2022-11-06T13:35:04.197Z,81.45
2022-11-06T13:37:41.139Z,81.11
2022-11-06T13:40:36.117Z,80.17
2022-11-06T13:43:12.978Z,80.83
2022-11-06T13:45:48.240Z,83.42
2022-11-06T13:48:37.482Z,82.61
2022-11-06T13:51:13.899Z,83.29
2022-11-06T13:53:59.951Z,81.78
2022-11-06T13:56:52.145Z,80.09
2022-11-06T13:59:25.753Z,80.73
2022-11-06T14:02:13.010Z,82.83
2022-11-06T14:04:58.584Z,81.63
2022-11-06T14:07:30.181Z,82.55
2022-11-06T14:09:57.048Z,80.13
2022-11-06T14:12:26.820Z,82.66
2022-11-06T14:15:14.725Z,80.92
2022-11-06T14:17:41.328Z,81.34
2022-11-06T14:20:27.739Z,80.44
2022-11-06T14:22:54.183Z,81.20
2022-11-06T14:25:29.786Z,80.65
2022-11-06T14:27:56.217Z,80.74
2022-11-06T14:30:57.715Z,82.08
2022-11-06T14:33:49.254Z,82.24
2022-11-06T14:36:24.632Z,81.79
2022-11-06T14:38:52.197Z,81.14
2022-11-06T14:41:33.615Z,81.81
2022-11-06T14:44:05.666Z,82.30
2022-11-06T14:46:34.879Z,82.52
2022-11-06T14:49:15.724Z,83.09
2022-11-06T14:51:42.361Z,83.97
2022-11-06T14:54:23.225Z,84.11
2022-11-06T14:56:54.343Z,84.93
2022-11-06T14:59:29.728Z,86.25
2022-11-06T15:02:15.152Z,87.67
2022-11-06T15:04:46.466Z,85.91
2022-11-06T15:07:58.718Z,87.79
2022-11-06T15:10:44.614Z,87.04
2022-11-06T15:13:17.109Z,87.24
2022-11-06T15:15:46.246Z,88.86
2022-11-06T15:18:20.651Z,88.60
2022-11-06T15:20:57.799Z,89.00
2022-11-06T15:23:40.326Z,89.08
2022-11-06T15:26:20.818Z,88.82
2022-11-06T15:28:55.542Z,90.68
2022-11-06T15:31:27.072Z,91.44
2022-11-06T15:33:59.624Z,93.21
2022-11-06T15:36:28.073Z,92.42
2022-11-06T15:38:54.707Z,91.03
2022-11-06T15:41:24.653Z,90.00
2022-11-06T15:43:54.910Z,90.63
2022-11-06T15:46:22.964Z,89.69
2022-11-06T15:49:08.096Z,90.85
2022-11-06T15:51:39.384Z,91.59
2022-11-06T15:54:06.949Z,93.34
2022-11-06T15:56:37.210Z,93.32
2022-11-06T15:59:16.990Z,90.71
2022-11-06T16:01:48.698Z,90.32
2022-11-06T16:04:22.867Z,90.96
2022-11-06T16:06:52.069Z,90.45
2022-11-06T16:09:21.676Z,91.29
2022-11-06T16:11:51.371Z,90.20
2022-11-06T16:14:18.952Z,90.27
2022-11-06T16:16:51.649Z,88.04
2022-11-06T16:19:18.367Z,88.65
2022-11-06T16:21:56.401Z,88.53
2022-11-06T16:24:24.700Z,89.25
2022-11-06T16:26:54.220Z,89.50
2022-11-06T16:29:27.331Z,88.43
2022-11-06T16:32:02.474Z,89.14
2022-11-06T16:34:31.981Z,88.76
2022-11-06T16:37:01.376Z,88.36
2022-11-06T16:39:47.694Z,89.38
2022-11-06T16:42:22.028Z,88.44
2022-11-06T16:44:49.614Z,89.45
2022-11-06T16:47:18.771Z,89.64
2022-11-06T16:49:52.859Z,88.51
2022-11-06T16:52:29.147Z,89.06
2022-11-06T16:54:58.328Z,89.48
2022-11-06T16:57:28.712Z,90.44
2022-11-06T16:59:58.663Z,90.97
2022-11-06T17:02:29.177Z,90.80
2022-11-06T17:05:17.536Z,91.76
2022-11-06T17:07:45.706Z,92.21
2022-11-06T17:10:51.661Z,92.98
2022-11-06T17:13:34.429Z,92.59
2022-11-06T17:16:05.605Z,92.78
2022-11-06T17:18:34.909Z,93.12
2022-11-06T17:21:14.242Z,94.94
2022-11-06T17:23:40.781Z,95.06
2022-11-06T17:26:22.483Z,95.32
2022-11-06T17:28:49.070Z,97.22
2022-11-06T17:31:19.683Z,98.74
2022-11-06T17:33:46.615Z,98.98
2022-11-06T17:36:18.091Z,98.59
2022-11-06T17:38:47.797Z,100.00
2022-11-06T17:41:29.569Z,99.96
2022-11-06T17:44:00.134Z,100.00
2022-11-06T17:46:29.829Z,100.00
2022-11-06T17:48:59.038Z,100.00
2022-11-06T17:51:44.684Z,100.00
2022-11-06T17:54:11.166Z,100.00
2022-11-06T17:56:38.516Z,100.00
2022-11-06T17:59:05.353Z,100.00
2022-11-06T18:01:32.273Z,100.00
2022-11-06T18:03:58.868Z,100.00
2022-11-06T18:06:28.632Z,100.00
2022-11-06T18:08:59.999Z,100.00
2022-11-06T18:11:27.614Z,100.00
2022-11-06T18:13:56.136Z,100.00
2022-11-06T18:16:27.535Z,100.00
2022-11-06T18:18:54.538Z,100.00
2022-11-06T18:21:21.345Z,100.00
2022-11-06T18:23:48.063Z,100.00
2022-11-06T18:26:14.666Z,100.00
2022-11-06T18:28:41.189Z,100.00
2022-11-06T18:31:07.747Z,100.00
2022-11-06T18:33:34.181Z,100.00
2022-11-06T18:36:09.035Z,100.00
2022-11-06T18:38:36.401Z,100.00
2022-11-06T18:41:10.672Z,100.00
2022-11-06T18:43:37.104Z,100.00
2022-11-06T18:46:08.068Z,100.00
2022-11-06T18:48:38.071Z,100.00
2022-11-06T18:51:06.813Z,100.00
2022-11-06T18:53:33.404Z,100.00
2022-11-06T18:55:59.995Z,100.00
2022-11-06T18:58:26.575Z,100.00
2022-11-06T19:01:01.456Z,100.00
2022-11-06T19:03:28.452Z,99.82
2022-11-06T19:05:54.953Z,98.98
2022-11-06T19:08:22.215Z,99.08
2022-11-06T19:10:50.852Z,100.00
2022-11-06T19:13:19.653Z,100.00
2022-11-06T19:15:46.218Z,99.71
2022-11-06T19:18:13.386Z,99.82
2022-11-06T19:20:46.277Z,99.79
2022-11-06T19:23:16.736Z,100.00
2022-11-06T19:25:43.446Z,100.00
2022-11-06T19:28:12.943Z,100.00
2022-11-06T19:30:39.884Z,99.69
2022-11-06T19:33:06.391Z,100.00
2022-11-06T19:35:33.123Z,99.69
2022-11-06T19:38:04.241Z,99.34
2022-11-06T19:40:30.605Z,99.59
2022-11-06T19:42:57.986Z,99.50
2022-11-06T19:45:26.240Z,99.88
2022-11-06T19:47:53.215Z,100.00
2022-11-06T19:50:39.161Z,100.00
2022-11-06T19:53:06.305Z,100.00
2022-11-06T19:55:32.732Z,100.00
2022-11-06T19:57:59.140Z,100.00
2022-11-06T20:00:25.609Z,100.00
2022-11-06T20:02:51.983Z,100.00
2022-11-06T20:05:18.394Z,100.00
2022-11-06T20:07:45.135Z,100.00
2022-11-06T20:10:11.643Z,100.00
2022-11-06T20:12:42.991Z,100.00
2022-11-06T20:15:09.758Z,99.99
2022-11-06T20:17:36.287Z,98.78
2022-11-06T20:20:02.769Z,98.72
2022-11-06T20:22:29.209Z,100.00
2022-11-06T20:24:55.722Z,99.68
2022-11-06T20:27:22.213Z,98.76
2022-11-06T20:29:48.793Z,97.48
2022-11-06T20:32:19.048Z,96.89
2022-11-06T20:34:46.099Z,98.76
2022-11-06T20:37:12.866Z,97.68
2022-11-06T20:39:41.417Z,97.67
2022-11-06T20:42:07.886Z,98.10
2022-11-06T20:44:36.580Z,99.62
2022-11-06T20:47:03.452Z,99.10
2022-11-06T20:49:29.901Z,98.58
2022-11-06T20:52:13.357Z,100.00
2022-11-06T20:54:46.420Z,99.46
2022-11-06T20:57:14.849Z,98.74
2022-11-06T20:59:41.328Z,99.99
2022-11-06T21:02:10.770Z,100.00
2022-11-06T21:04:39.709Z,100.00
2022-11-06T21:07:09.302Z,99.56
2022-11-06T21:09:35.813Z,98.27
2022-11-06T21:12:04.799Z,98.42
2022-11-06T21:14:31.635Z,97.60
2022-11-06T21:16:58.361Z,97.78
2022-11-06T21:19:28.063Z,96.16
2022-11-06T21:21:59.323Z,96.74
2022-11-06T21:24:25.772Z,96.38
2022-11-06T21:26:55.128Z,96.71
2022-11-06T21:29:23.240Z,96.64
2022-11-06T21:31:50.663Z,97.69
2022-11-06T21:34:18.981Z,96.75
2022-11-06T21:36:46.697Z,98.39
2022-11-06T21:39:16.493Z,98.28
2022-11-06T21:41:43.603Z,97.23
2022-11-06T21:44:14.240Z,98.96
2022-11-06T21:46:44.245Z,96.59
2022-11-06T21:49:14.112Z,96.58
2022-11-06T21:51:41.782Z,96.26
2022-11-06T21:54:30.435Z,96.35
2022-11-06T21:56:59.197Z,97.95
2022-11-06T21:59:27.977Z,95.64
2022-11-06T22:01:54.688Z,95.86
2022-11-06T22:04:21.350Z,94.78
2022-11-06T22:06:47.774Z,94.98
2022-11-06T22:09:14.328Z,94.36
2022-11-06T22:11:43.571Z,95.63
2022-11-06T22:14:15.966Z,94.42
2022-11-06T22:16:45.345Z,94.24
2022-11-06T22:19:13.481Z,94.06
2022-11-06T22:21:42.880Z,93.78
2022-11-06T22:24:11.823Z,92.27
2022-11-06T22:26:38.224Z,93.75
2022-11-06T22:29:11.128Z,93.39
2022-11-06T22:31:37.633Z,92.03
2022-11-06T22:34:06.589Z,93.35
2022-11-06T22:36:36.316Z,94.15
2022-11-06T22:39:07.756Z,94.00
2022-11-06T22:41:34.569Z,92.70
2022-11-06T22:44:01.833Z,94.19
2022-11-06T22:46:29.308Z,93.33
2022-11-06T22:48:58.646Z,94.58
2022-11-06T22:51:29.299Z,93.31
2022-11-06T22:53:59.438Z,94.21
2022-11-06T22:56:27.835Z,95.04
2022-11-06T22:58:56.499Z,94.41
2022-11-06T23:01:24.705Z,94.84
2022-11-06T23:03:56.334Z,93.74
2022-11-06T23:06:26.238Z,92.71
2022-11-06T23:08:53.202Z,93.53
2022-11-06T23:11:21.271Z,93.15
2022-11-06T23:13:48.499Z,94.24
2022-11-06T23:16:40.850Z,92.41
2022-11-06T23:19:08.246Z,93.66
2022-11-06T23:21:37.304Z,93.98
2022-11-06T23:24:04.631Z,94.73
2022-11-06T23:26:33.752Z,95.08
2022-11-06T23:29:02.294Z,96.24
2022-11-06T23:31:31.113Z,96.47
2022-11-06T23:33:57.801Z,96.87
2022-11-06T23:36:24.285Z,97.29
2022-11-06T23:38:53.272Z,97.94
2022-11-06T23:41:40.807Z,98.12
2022-11-06T23:44:27.190Z,97.71
2022-11-06T23:46:53.704Z,99.54
2022-11-06T23:49:20.266Z,99.88
2022-11-06T23:51:46.923Z,100.00
2022-11-06T23:54:13.428Z,100.00
2022-11-06T23:56:39.902Z,100.00
2022-11-06T23:59:08.622Z,100.00
